createdAt,value
2022-12-11T00:01:52.514Z,93969.69
2022-12-11T00:04:18.957Z,93972.44
2022-12-11T00:06:45.412Z,93974.91
2022-12-11T00:09:11.787Z,93968.63
2022-12-11T00:11:38.215Z,93969.00
2022-12-11T00:14:04.932Z,93974.75
2022-12-11T00:16:31.340Z,93971.06
2022-12-11T00:19:00.131Z,93966.16
2022-12-11T00:21:26.675Z,93973.69
2022-12-11T00:23:53.042Z,93976.53
2022-12-11T00:26:19.455Z,93979.56
2022-12-11T00:28:46.121Z,93978.06
2022-12-11T00:31:12.812Z,93973.78
2022-12-11T00:33:40.206Z,93978.19
2022-12-11T00:36:06.632Z,93976.28
2022-12-11T00:38:33.311Z,93981.47
2022-12-11T00:40:59.965Z,93979.16
2022-12-11T00:43:26.314Z,93982.00
2022-12-11T00:45:52.826Z,93980.91
2022-12-11T00:48:19.587Z,93976.81
2022-12-11T00:50:46.082Z,93986.53
2022-12-11T00:53:12.783Z,93997.88
2022-12-11T00:55:39.376Z,93996.13
2022-12-11T00:58:05.951Z,93997.34
2022-12-11T01:00:33.436Z,93992.53
2022-12-11T01:03:00.038Z,93986.25
2022-12-11T01:05:26.715Z,93994.75
2022-12-11T01:07:53.719Z,93991.06
2022-12-11T01:10:20.203Z,93995.97
2022-12-11T01:12:46.929Z,93992.97
2022-12-11T01:15:14.007Z,93992.00
2022-12-11T01:17:42.818Z,93988.84
2022-12-11T01:20:11.778Z,93991.03
2022-12-11T01:22:38.236Z,93996.78
2022-12-11T01:25:04.634Z,93996.22
2022-12-11T01:27:31.061Z,93993.22
2022-12-11T01:29:57.538Z,93996.91
2022-12-11T01:32:24.110Z,93997.06
2022-12-11T01:34:50.469Z,94006.47
2022-12-11T01:37:17.281Z,93998.41
2022-12-11T01:39:44.243Z,93999.38
2022-12-11T01:42:12.837Z,93993.06
2022-12-11T01:44:39.747Z,93987.63
2022-12-11T01:47:08.955Z,93995.13
2022-12-11T01:49:35.299Z,93987.75
2022-12-11T01:52:01.676Z,93990.75
2022-12-11T01:54:28.123Z,93995.28
2022-12-11T01:56:54.892Z,93993.09
2022-12-11T01:59:21.456Z,93990.91
2022-12-11T02:01:47.901Z,93997.63
2022-12-11T02:04:14.385Z,94003.91
2022-12-11T02:06:40.773Z,94000.31
2022-12-11T02:09:07.156Z,94009.22
2022-12-11T02:11:34.771Z,94007.19
2022-12-11T02:14:01.171Z,94005.00
2022-12-11T02:16:29.925Z,94016.47
2022-12-11T02:18:56.339Z,94013.47
2022-12-11T02:21:23.027Z,94014.56
2022-12-11T02:23:49.680Z,94012.06
2022-12-11T02:26:23.345Z,94017.38
2022-12-11T02:28:49.924Z,94013.03
2022-12-11T02:31:16.736Z,94006.06
2022-12-11T02:33:43.559Z,94011.97
2022-12-11T02:36:10.292Z,94004.84
2022-12-11T02:38:36.765Z,94006.34
2022-12-11T02:41:03.542Z,94009.66
2022-12-11T02:43:29.896Z,94012.78
2022-12-11T02:45:56.734Z,94013.63
2022-12-11T02:48:23.254Z,94017.44
2022-12-11T02:50:49.808Z,94026.59
2022-12-11T02:53:16.479Z,94028.22
2022-12-11T02:55:42.817Z,94021.81
2022-12-11T02:58:09.216Z,94020.81
2022-12-11T03:00:35.588Z,94034.09
2022-12-11T03:03:01.989Z,94025.56
2022-12-11T03:05:28.532Z,94021.91
2022-12-11T03:07:55.082Z,94025.16
2022-12-11T03:10:21.761Z,94029.97
2022-12-11T03:12:53.164Z,94019.53
2022-12-11T03:15:20.171Z,94016.66
2022-12-11T03:17:46.561Z,94014.34
2022-12-11T03:20:13.000Z,94017.47
2022-12-11T03:22:39.450Z,94011.50
2022-12-11T03:25:05.952Z,94017.53
2022-12-11T03:27:32.616Z,94020.28
2022-12-11T03:29:58.987Z,94023.03
2022-12-11T03:32:25.560Z,94021.66
2022-12-11T03:34:56.930Z,94025.78
2022-12-11T03:37:25.124Z,94015.38
2022-12-11T03:39:53.380Z,94022.34
2022-12-11T03:42:19.769Z,94024.69
2022-12-11T03:44:46.146Z,94022.88
2022-12-11T03:47:12.750Z,94019.34
2022-12-11T03:49:39.232Z,94011.56
2022-12-11T03:52:05.638Z,94011.00
2022-12-11T03:54:32.096Z,94008.53
2022-12-11T03:57:01.185Z,94009.34
2022-12-11T03:59:29.781Z,94012.25
2022-12-11T04:01:56.176Z,94002.94
2022-12-11T04:04:22.729Z,94006.75
2022-12-11T04:06:49.332Z,94017.41
2022-12-11T04:09:15.715Z,94010.97
2022-12-11T04:11:42.094Z,94009.91
2022-12-11T04:14:08.654Z,94017.00
2022-12-11T04:16:35.221Z,94011.81
2022-12-11T04:19:01.615Z,94006.31
2022-12-11T04:21:27.990Z,94008.50
2022-12-11T04:23:57.436Z,94001.06
2022-12-11T04:26:23.902Z,94003.75
2022-12-11T04:28:50.757Z,94007.72
2022-12-11T04:31:19.675Z,94002.41
2022-12-11T04:33:46.194Z,93999.94
2022-12-11T04:36:12.534Z,93999.13
2022-12-11T04:38:39.286Z,94002.09
2022-12-11T04:41:06.286Z,93991.00
2022-12-11T04:43:32.991Z,94006.16
2022-12-11T04:45:59.491Z,94001.75
2022-12-11T04:48:26.524Z,94008.28
2022-12-11T04:50:53.911Z,94001.03
2022-12-11T04:53:20.528Z,94000.84
2022-12-11T04:55:47.476Z,94000.66
2022-12-11T04:58:14.271Z,94005.81
2022-12-11T05:00:40.715Z,94012.44
2022-12-11T05:03:08.203Z,94012.94
2022-12-11T05:05:34.581Z,94005.31
2022-12-11T05:08:08.223Z,94013.91
2022-12-11T05:10:34.782Z,94008.72
2022-12-11T05:13:03.767Z,94016.50
2022-12-11T05:15:30.110Z,94009.66
2022-12-11T05:17:56.601Z,94012.38
2022-12-11T05:20:22.988Z,94011.25
2022-12-11T05:22:49.481Z,94015.56
2022-12-11T05:25:15.922Z,94002.97
2022-12-11T05:27:42.305Z,94008.78
2022-12-11T05:30:08.698Z,94011.47
2022-12-11T05:32:37.147Z,94005.50
2022-12-11T05:35:06.403Z,94006.44
2022-12-11T05:37:33.412Z,94000.41
2022-12-11T05:40:02.614Z,94001.38
2022-12-11T05:42:30.000Z,93994.69
2022-12-11T05:44:56.510Z,94000.13
2022-12-11T05:47:22.979Z,94003.06
2022-12-11T05:49:52.241Z,94000.84
2022-12-11T05:52:18.860Z,94005.69
2022-12-11T05:54:45.189Z,94002.09
2022-12-11T05:57:12.587Z,93998.91
2022-12-11T05:59:38.930Z,93996.03
2022-12-11T06:02:05.461Z,94002.25
2022-12-11T06:04:31.899Z,93996.09
2022-12-11T06:06:58.361Z,94000.22
2022-12-11T06:09:26.013Z,93994.84
2022-12-11T06:11:52.409Z,93995.78
2022-12-11T06:14:20.203Z,93989.09
2022-12-11T06:16:46.624Z,93990.97
2022-12-11T06:19:13.278Z,93991.44
2022-12-11T06:21:40.041Z,93992.41
2022-12-11T06:24:07.767Z,94007.00
2022-12-11T06:26:34.529Z,94002.41
2022-12-11T06:29:01.069Z,94009.34
2022-12-11T06:31:27.861Z,94005.81
2022-12-11T06:33:54.365Z,94006.28
2022-12-11T06:36:20.945Z,94001.34
2022-12-11T06:38:47.415Z,94005.69
2022-12-11T06:41:13.807Z,94004.16
2022-12-11T06:43:40.266Z,94001.81
2022-12-11T06:46:06.776Z,93999.38
2022-12-11T06:48:34.092Z,94006.50
2022-12-11T06:51:00.548Z,94002.50
2022-12-11T06:53:26.940Z,94003.59
2022-12-11T06:55:53.844Z,94003.69
2022-12-11T06:58:20.207Z,94017.69
2022-12-11T07:00:46.724Z,94020.47
2022-12-11T07:03:13.150Z,94003.44
2022-12-11T07:05:39.750Z,94008.59
2022-12-11T07:08:07.151Z,94003.56
2022-12-11T07:10:35.750Z,94015.91
2022-12-11T07:13:03.108Z,94011.91
2022-12-11T07:15:30.848Z,94008.47
2022-12-11T07:17:57.219Z,94012.03
2022-12-11T07:20:25.661Z,94009.53
2022-12-11T07:22:52.026Z,94009.78
2022-12-11T07:25:21.039Z,94012.22
2022-12-11T07:27:47.454Z,94020.09
2022-12-11T07:30:14.462Z,94013.53
2022-12-11T07:32:41.020Z,94028.19
2022-12-11T07:35:07.547Z,94027.34
2022-12-11T07:37:34.026Z,94027.34
2022-12-11T07:40:00.724Z,94037.69
2022-12-11T07:42:29.409Z,94033.09
2022-12-11T07:44:56.821Z,94036.72
2022-12-11T07:47:31.331Z,94038.84
2022-12-11T07:49:59.111Z,94034.97
2022-12-11T07:52:25.491Z,94035.75
2022-12-11T07:54:52.195Z,94037.41
2022-12-11T07:57:21.078Z,94034.84
2022-12-11T07:59:49.518Z,94038.25
2022-12-11T08:02:16.014Z,94037.81
2022-12-11T08:04:44.599Z,94035.69
2022-12-11T08:07:11.732Z,94036.06
2022-12-11T08:09:39.205Z,94033.84
2022-12-11T08:12:05.647Z,94040.53
2022-12-11T08:14:32.121Z,94033.28
2022-12-11T08:16:58.810Z,94029.53
2022-12-11T08:19:25.167Z,94029.97
2022-12-11T08:21:51.631Z,94023.44
2022-12-11T08:24:17.965Z,94031.41
2022-12-11T08:26:44.344Z,94020.03
2022-12-11T08:29:10.695Z,94024.13
2022-12-11T08:31:37.407Z,94018.50
2022-12-11T08:34:04.105Z,94017.22
2022-12-11T08:36:30.949Z,94025.22
2022-12-11T08:38:57.405Z,94021.44
2022-12-11T08:41:24.214Z,94016.38
2022-12-11T08:43:52.063Z,94014.25
2022-12-11T08:46:18.580Z,94014.03
2022-12-11T08:48:47.483Z,94014.47
2022-12-11T08:51:16.224Z,94008.47
2022-12-11T08:53:43.425Z,93998.69
2022-12-11T08:56:10.209Z,94005.22
2022-12-11T08:58:36.662Z,94002.00
2022-12-11T09:01:03.246Z,93992.56
2022-12-11T09:03:29.663Z,93992.88
2022-12-11T09:05:56.506Z,93988.03
2022-12-11T09:08:23.284Z,93983.19
2022-12-11T09:10:49.686Z,93980.03
2022-12-11T09:13:16.072Z,93981.09
2022-12-11T09:15:42.506Z,93980.78
2022-12-11T09:18:08.910Z,93977.81
2022-12-11T09:20:35.238Z,93971.03
2022-12-11T09:23:01.776Z,93969.41
2022-12-11T09:25:28.143Z,93966.88
2022-12-11T09:27:54.734Z,93962.44
2022-12-11T09:30:21.181Z,93965.56
2022-12-11T09:32:47.950Z,93964.91
2022-12-11T09:35:14.691Z,93966.16
2022-12-11T09:37:41.143Z,93969.88
2022-12-11T09:40:08.149Z,93973.72
2022-12-11T09:42:34.689Z,93974.00
2022-12-11T09:45:01.167Z,93972.25
2022-12-11T09:47:27.561Z,93967.44
2022-12-11T09:49:53.947Z,93967.31
2022-12-11T09:52:23.657Z,93956.97
2022-12-11T09:54:50.440Z,93958.91
2022-12-11T09:57:16.991Z,93957.13
2022-12-11T09:59:45.726Z,93964.78
2022-12-11T10:02:12.232Z,93956.88
2022-12-11T10:04:38.623Z,93947.00
2022-12-11T10:07:05.004Z,93947.56
2022-12-11T10:09:31.410Z,93937.69
2022-12-11T10:11:57.826Z,93936.88
2022-12-11T10:14:27.904Z,93931.34
2022-12-11T10:16:54.550Z,93926.72
2022-12-11T10:19:21.934Z,93941.06
2022-12-11T10:21:48.804Z,93934.94
2022-12-11T10:24:33.778Z,93931.97
2022-12-11T10:27:04.075Z,93935.66
2022-12-11T10:29:32.722Z,93933.78
2022-12-11T10:31:59.182Z,93927.88
2022-12-11T10:34:25.552Z,93919.69
2022-12-11T10:36:57.291Z,93919.41
2022-12-11T10:39:26.805Z,93910.94
2022-12-11T10:41:53.501Z,93911.19
2022-12-11T10:44:20.160Z,93904.13
2022-12-11T10:46:46.694Z,93906.16
2022-12-11T10:49:13.359Z,93901.63
2022-12-11T10:51:40.227Z,93904.66
2022-12-11T10:54:07.743Z,93899.34
2022-12-11T10:56:34.455Z,93903.03
2022-12-11T10:59:00.906Z,93891.41
2022-12-11T11:01:28.232Z,93891.41
2022-12-11T11:03:54.993Z,93894.81
2022-12-11T11:06:21.782Z,93897.75
2022-12-11T11:08:48.627Z,93890.97
2022-12-11T11:11:17.419Z,93896.66
2022-12-11T11:13:43.849Z,93899.81
2022-12-11T11:16:12.591Z,93888.84
2022-12-11T11:18:39.389Z,93886.22
2022-12-11T11:21:05.920Z,93883.59
2022-12-11T11:23:32.317Z,93882.16
2022-12-11T11:25:59.040Z,93882.28
2022-12-11T11:28:25.424Z,93883.16
2022-12-11T11:30:52.456Z,93886.00
2022-12-11T11:33:19.085Z,93881.91
2022-12-11T11:35:47.916Z,93878.44
2022-12-11T11:38:14.387Z,93874.47
2022-12-11T11:40:40.914Z,93876.34
2022-12-11T11:43:07.258Z,93868.50
2022-12-11T11:45:33.639Z,93873.56
2022-12-11T11:48:11.841Z,93870.88
2022-12-11T11:50:38.340Z,93869.47
2022-12-11T11:53:05.187Z,93868.22
2022-12-11T11:55:31.762Z,93862.59
2022-12-11T11:57:59.223Z,93861.34
2022-12-11T12:00:28.880Z,93856.53
2022-12-11T12:02:59.713Z,93861.59
2022-12-11T12:05:28.535Z,93862.78
2022-12-11T12:07:55.020Z,93861.28
2022-12-11T12:10:21.405Z,93869.31
2022-12-11T12:12:47.780Z,93867.03
2022-12-11T12:15:14.306Z,93863.75
2022-12-11T12:17:40.958Z,93867.41
2022-12-11T12:20:07.348Z,93861.53
2022-12-11T12:22:34.217Z,93860.72
2022-12-11T12:25:01.091Z,93853.72
2022-12-11T12:27:51.495Z,93853.44
2022-12-11T12:30:20.355Z,93854.91
2022-12-11T12:32:49.220Z,93855.75
2022-12-11T12:35:16.182Z,93862.22
2022-12-11T12:37:42.806Z,93867.34
2022-12-11T12:40:09.257Z,93869.94
2022-12-11T12:42:35.652Z,93862.91
2022-12-11T12:45:02.045Z,93873.09
2022-12-11T12:47:28.437Z,93869.91
2022-12-11T12:49:54.794Z,93869.75
2022-12-11T12:52:23.529Z,93872.66
2022-12-11T12:54:51.094Z,93872.50
2022-12-11T12:57:17.903Z,93869.19
2022-12-11T12:59:44.464Z,93859.81
2022-12-11T13:02:10.967Z,93868.88
2022-12-11T13:07:24.526Z,93859.91
2022-12-11T13:09:50.905Z,93854.44
2022-12-11T13:12:17.328Z,93865.25
2022-12-11T13:14:44.033Z,93859.78
2022-12-11T13:17:10.505Z,93857.31
2022-12-11T13:19:42.324Z,93858.00
2022-12-11T13:22:09.679Z,93857.75
2022-12-11T13:24:36.320Z,93860.94
2022-12-11T13:27:02.973Z,93862.22
2022-12-11T13:29:29.432Z,93864.69
2022-12-11T13:31:56.103Z,93867.25
2022-12-11T13:34:22.526Z,93862.50
2022-12-11T13:36:49.751Z,93870.56
2022-12-11T13:39:17.800Z,93857.91
2022-12-11T13:41:44.528Z,93861.34
2022-12-11T13:44:11.278Z,93854.66
2022-12-11T13:46:38.015Z,93858.22
2022-12-11T13:49:04.385Z,93860.38
2022-12-11T13:51:30.838Z,93867.34
2022-12-11T13:53:57.560Z,93863.38
2022-12-11T13:56:26.536Z,93871.03
2022-12-11T13:58:53.246Z,93869.97
2022-12-11T14:01:19.738Z,93874.88
2022-12-11T14:03:47.268Z,93864.72
2022-12-11T14:06:18.653Z,93863.56
2022-12-11T14:08:46.182Z,93863.03
2022-12-11T14:11:12.550Z,93859.56
2022-12-11T14:13:39.554Z,93871.88
2022-12-11T14:16:06.244Z,93868.97
2022-12-11T14:18:32.970Z,93862.84
2022-12-11T14:21:02.419Z,93868.88
2022-12-11T14:23:29.600Z,93871.31
2022-12-11T14:25:56.207Z,93871.44
2022-12-11T14:28:22.597Z,93869.38
2022-12-11T14:30:49.322Z,93874.28
2022-12-11T14:33:16.026Z,93870.91
2022-12-11T14:35:45.149Z,93873.63
2022-12-11T14:38:14.061Z,93873.09
2022-12-11T14:40:40.544Z,93870.22
2022-12-11T14:43:07.016Z,93875.16
2022-12-11T14:45:34.606Z,93863.38
2022-12-11T14:48:01.515Z,93875.28
2022-12-11T14:50:28.953Z,93872.84
2022-12-11T14:52:55.361Z,93864.75
2022-12-11T14:55:21.707Z,93868.56
2022-12-11T14:57:50.358Z,93873.22
2022-12-11T15:00:17.102Z,93867.50
2022-12-11T15:02:43.977Z,93869.66
2022-12-11T15:05:10.456Z,93866.53
2022-12-11T15:07:36.849Z,93870.50
2022-12-11T15:10:03.400Z,93865.44
2022-12-11T15:12:29.790Z,93863.25
2022-12-11T15:14:56.631Z,93865.28
2022-12-11T15:17:23.163Z,93864.75
2022-12-11T15:19:50.957Z,93856.53
2022-12-11T15:22:17.352Z,93855.44
2022-12-11T15:24:43.771Z,93862.22
2022-12-11T15:27:11.676Z,93865.75
2022-12-11T15:29:38.007Z,93862.19
2022-12-11T15:32:04.505Z,93862.97
2022-12-11T15:34:31.089Z,93853.41
2022-12-11T15:36:57.444Z,93857.47
2022-12-11T15:39:24.014Z,93857.19
2022-12-11T15:41:50.584Z,93856.34
2022-12-11T15:44:17.203Z,93853.56
2022-12-11T15:46:44.033Z,93863.75
2022-12-11T15:49:10.424Z,93863.94
2022-12-11T15:51:42.652Z,93869.31
2022-12-11T15:54:09.756Z,93871.59
2022-12-11T15:56:36.606Z,93872.09
2022-12-11T15:59:03.171Z,93880.81
2022-12-11T16:01:29.746Z,93879.66
2022-12-11T16:04:01.702Z,93875.63
2022-12-11T16:06:31.441Z,93881.88
2022-12-11T16:08:57.892Z,93885.56
2022-12-11T16:11:24.387Z,93890.13
2022-12-11T16:13:50.790Z,93881.22
2022-12-11T16:16:17.355Z,93890.41
2022-12-11T16:18:43.847Z,93885.22
2022-12-11T16:21:10.725Z,93889.97
2022-12-11T16:23:37.116Z,93895.34
2022-12-11T16:26:03.681Z,93890.69
2022-12-11T16:28:32.519Z,93892.34
2022-12-11T16:30:59.111Z,93896.72
2022-12-11T16:33:25.497Z,93896.47
2022-12-11T16:35:52.408Z,93893.53
2022-12-11T16:38:18.818Z,93899.91
2022-12-11T16:40:45.714Z,93892.84
2022-12-11T16:43:14.573Z,93898.63
2022-12-11T16:45:40.955Z,93907.78
2022-12-11T16:48:07.352Z,93900.13
2022-12-11T16:50:34.381Z,93902.00
2022-12-11T16:53:01.099Z,93905.06
2022-12-11T16:55:30.277Z,93890.03
2022-12-11T16:57:57.156Z,93890.38
2022-12-11T17:00:23.883Z,93888.63
2022-12-11T17:02:50.532Z,93889.78
2022-12-11T17:05:16.972Z,93891.53
2022-12-11T17:07:43.358Z,93888.72
2022-12-11T17:10:10.070Z,93888.13
2022-12-11T17:12:36.462Z,93890.94
2022-12-11T17:15:03.370Z,93894.22
2022-12-11T17:17:29.806Z,93891.50
2022-12-11T17:19:56.383Z,93893.97
2022-12-11T17:22:22.890Z,93894.66
2022-12-11T17:24:51.569Z,93903.38
2022-12-11T17:27:18.198Z,93899.72
2022-12-11T17:29:44.610Z,93901.94
2022-12-11T17:32:11.023Z,93900.66
2022-12-11T17:34:38.683Z,93906.41
2022-12-11T17:37:07.749Z,93902.66
2022-12-11T17:39:34.440Z,93896.09
2022-12-11T17:42:01.932Z,93894.91
2022-12-11T17:44:28.547Z,93897.41
2022-12-11T17:46:55.961Z,93901.75
2022-12-11T17:49:22.511Z,93903.72
2022-12-11T17:51:49.082Z,93906.19
2022-12-11T17:54:15.530Z,93892.13
2022-12-11T17:56:41.916Z,93904.78
2022-12-11T17:59:08.664Z,93901.72
2022-12-11T18:01:37.953Z,93894.56
2022-12-11T18:04:05.310Z,93896.75
2022-12-11T18:06:31.705Z,93895.97
2022-12-11T18:08:58.292Z,93904.28
2022-12-11T18:11:25.221Z,93898.34
2022-12-11T18:13:52.634Z,93907.59
2022-12-11T18:16:19.189Z,93909.69
2022-12-11T18:18:45.766Z,93909.19
2022-12-11T18:21:12.148Z,93908.00
2022-12-11T18:23:38.908Z,93920.00
2022-12-11T18:26:05.480Z,93913.19
2022-12-11T18:28:32.195Z,93924.00
2022-12-11T18:30:59.279Z,93923.75
2022-12-11T18:33:25.692Z,93925.41
2022-12-11T18:35:52.087Z,93921.16
2022-12-11T18:38:18.443Z,93928.22
2022-12-11T18:40:44.776Z,93929.63
2022-12-11T18:43:11.415Z,93929.75
2022-12-11T18:45:37.997Z,93928.91
2022-12-11T18:48:04.374Z,93926.09
2022-12-11T18:50:31.229Z,93924.44
2022-12-11T18:52:57.789Z,93930.91
2022-12-11T18:55:24.177Z,93923.03
2022-12-11T18:57:50.642Z,93927.94
2022-12-11T19:00:17.365Z,93923.09
2022-12-11T19:02:43.723Z,93926.03
2022-12-11T19:05:10.370Z,93924.00
2022-12-11T19:07:37.123Z,93928.81
2022-12-11T19:10:03.519Z,93932.53
2022-12-11T19:12:30.197Z,93923.72
2022-12-11T19:14:56.575Z,93925.97
2022-12-11T19:17:23.570Z,93926.53
2022-12-11T19:19:50.157Z,93925.25
2022-12-11T19:22:17.199Z,93925.00
2022-12-11T19:24:44.696Z,93922.97
2022-12-11T19:27:13.702Z,93922.03
2022-12-11T19:29:42.361Z,93921.91
2022-12-11T19:32:08.824Z,93929.09
2022-12-11T19:34:35.215Z,93935.13
2022-12-11T19:37:01.711Z,93931.84
2022-12-11T19:39:28.163Z,93928.78
2022-12-11T19:41:55.204Z,93923.03
2022-12-11T19:44:21.670Z,93927.84
2022-12-11T19:46:48.329Z,93921.69
2022-12-11T19:49:14.788Z,93926.88
2022-12-11T19:51:41.137Z,93927.00
2022-12-11T19:54:07.505Z,93925.25
2022-12-11T19:56:36.319Z,93919.13
2022-12-11T19:59:03.063Z,93920.50
2022-12-11T20:01:29.437Z,93915.34
2022-12-11T20:03:56.173Z,93914.28
2022-12-11T20:06:23.963Z,93920.78
2022-12-11T20:08:51.427Z,93922.66
2022-12-11T20:11:18.933Z,93920.78
2022-12-11T20:13:45.594Z,93918.88
2022-12-11T20:16:13.127Z,93923.34
2022-12-11T20:18:39.595Z,93921.69
2022-12-11T20:21:06.010Z,93920.31
2022-12-11T20:23:32.488Z,93919.25
2022-12-11T20:25:59.147Z,93922.41
2022-12-11T20:28:25.615Z,93927.06
2022-12-11T20:30:52.197Z,93919.44
2022-12-11T20:33:18.681Z,93924.34
2022-12-11T20:35:45.058Z,93930.13
2022-12-11T20:38:11.410Z,93927.06
2022-12-11T20:40:37.862Z,93924.94
2022-12-11T20:43:04.307Z,93920.34
2022-12-11T20:45:33.135Z,93932.22
2022-12-11T20:47:59.585Z,93933.16
2022-12-11T20:50:31.262Z,93933.97
2022-12-11T20:52:57.607Z,93928.66
2022-12-11T20:55:25.409Z,93933.16
2022-12-11T20:57:52.005Z,93929.16
2022-12-11T21:00:18.564Z,93925.75
2022-12-11T21:02:45.028Z,93927.63
2022-12-11T21:05:11.772Z,93927.78
2022-12-11T21:07:38.363Z,93921.91
2022-12-11T21:10:05.994Z,93926.16
2022-12-11T21:12:32.569Z,93923.78
2022-12-11T21:14:59.001Z,93918.06
2022-12-11T21:17:25.589Z,93916.66
2022-12-11T21:19:51.984Z,93915.25
2022-12-11T21:22:18.861Z,93924.22
2022-12-11T21:24:45.314Z,93919.91
2022-12-11T21:27:11.688Z,93915.13
2022-12-11T21:29:38.451Z,93919.00
2022-12-11T21:32:04.875Z,93922.91
2022-12-11T21:34:31.361Z,93916.59
2022-12-11T21:36:57.751Z,93920.22
2022-12-11T21:39:24.176Z,93913.44
2022-12-11T21:41:50.516Z,93918.03
2022-12-11T21:47:03.420Z,93916.28
2022-12-11T21:49:30.364Z,93920.06
2022-12-11T21:51:57.070Z,93921.72
2022-12-11T21:54:24.735Z,93919.50
2022-12-11T21:56:51.107Z,93922.66
2022-12-11T21:59:17.454Z,93915.38
2022-12-11T22:01:43.805Z,93918.22
2022-12-11T22:04:10.322Z,93916.34
2022-12-11T22:06:36.721Z,93923.72
2022-12-11T22:09:03.122Z,93924.75
2022-12-11T22:11:29.506Z,93928.63
2022-12-11T22:13:56.337Z,93924.75
2022-12-11T22:16:22.765Z,93932.84
2022-12-11T22:18:49.174Z,93928.25
2022-12-11T22:21:16.227Z,93937.16
2022-12-11T22:23:42.918Z,93933.94
2022-12-11T22:26:09.277Z,93934.16
2022-12-11T22:28:36.634Z,93931.72
2022-12-11T22:31:03.283Z,93939.38
2022-12-11T22:33:31.707Z,93938.28
2022-12-11T22:35:58.700Z,93935.09
2022-12-11T22:38:25.312Z,93939.34
2022-12-11T22:40:51.718Z,93939.34
2022-12-11T22:43:18.070Z,93941.19
2022-12-11T22:45:44.530Z,93936.97
2022-12-11T22:48:11.120Z,93945.22
2022-12-11T22:50:37.467Z,93944.75
2022-12-11T22:53:04.068Z,93942.38
2022-12-11T22:55:30.696Z,93943.22
2022-12-11T22:57:57.142Z,93945.91
2022-12-11T23:00:25.120Z,93951.25
2022-12-11T23:02:51.580Z,93953.75
2022-12-11T23:05:18.214Z,93955.63
2022-12-11T23:07:44.710Z,93956.03
2022-12-11T23:10:11.104Z,93948.00
2022-12-11T23:12:37.506Z,93951.50
2022-12-11T23:15:03.949Z,93949.75
2022-12-11T23:17:30.290Z,93955.84
2022-12-11T23:19:56.673Z,93956.75
2022-12-11T23:22:23.068Z,93960.47
2022-12-11T23:24:50.545Z,93956.69
2022-12-11T23:27:17.011Z,93957.84
2022-12-11T23:29:43.391Z,93960.59
2022-12-11T23:32:09.783Z,93962.34
2022-12-11T23:34:36.135Z,93960.81
2022-12-11T23:37:04.055Z,93964.19
2022-12-11T23:39:30.679Z,93965.13
2022-12-11T23:41:57.009Z,93960.59
2022-12-11T23:44:23.356Z,93957.50
2022-12-11T23:46:49.730Z,93957.63
2022-12-11T23:49:16.108Z,93964.69
2022-12-11T23:51:43.242Z,93964.47
2022-12-11T23:54:09.573Z,93962.81
2022-12-11T23:56:36.117Z,93968.56
2022-12-11T23:59:02.477Z,93969.38
